createdAt,value
2022-08-12T00:00:09.412Z,1.50
2022-08-12T00:02:55.552Z,4.18
2022-08-12T00:06:01.808Z,2.78
2022-08-12T00:08:48.960Z,4.22
2022-08-12T00:11:35.848Z,2.90
2022-08-12T00:14:22.109Z,1.80
2022-08-12T00:17:08.682Z,2.75
2022-08-12T00:19:54.760Z,3.10
2022-08-12T00:22:41.933Z,2.30
2022-08-12T00:26:01.416Z,1.75
2022-08-12T00:28:35.978Z,1.58
2022-08-12T00:31:22.691Z,4.43
2022-08-12T00:34:08.157Z,2.25
2022-08-12T00:36:53.941Z,2.20
2022-08-12T00:39:40.337Z,3.03
2022-08-12T00:42:12.428Z,5.05
2022-08-12T00:44:43.969Z,2.45
2022-08-12T00:47:25.504Z,2.20
2022-08-12T00:49:56.160Z,1.58
2022-08-12T00:52:45.596Z,1.20
2022-08-12T00:55:13.946Z,2.00
2022-08-12T00:57:48.716Z,1.55
2022-08-12T01:00:21.563Z,3.63
2022-08-12T01:02:52.823Z,2.45
2022-08-12T01:05:40.662Z,3.20
2022-08-12T01:08:28.815Z,2.85
2022-08-12T01:11:15.515Z,4.78
2022-08-12T01:13:48.626Z,5.65
2022-08-12T01:16:23.149Z,1.40
2022-08-12T01:18:52.820Z,2.08
2022-08-12T01:21:42.278Z,2.13
2022-08-12T01:24:31.170Z,4.57
2022-08-12T01:27:07.780Z,4.65
2022-08-12T01:29:42.862Z,1.75
2022-08-12T01:32:14.386Z,2.83
2022-08-12T01:34:51.838Z,1.65
2022-08-12T01:37:23.324Z,3.17
2022-08-12T01:40:33.690Z,2.08
2022-08-12T01:42:47.078Z,3.47
2022-08-12T01:45:17.721Z,1.60
2022-08-12T01:48:00.701Z,6.32
2022-08-12T01:50:43.111Z,3.38
2022-08-12T01:53:13.548Z,2.75
2022-08-12T01:55:44.590Z,4.43
2022-08-12T01:58:29.917Z,2.53
2022-08-12T02:01:25.632Z,1.67
2022-08-12T02:04:22.445Z,1.77
2022-08-12T02:07:20.355Z,2.65
2022-08-12T02:10:50.693Z,3.17
2022-08-12T02:13:10.947Z,2.33
2022-08-12T02:15:49.738Z,3.38
2022-08-12T02:18:27.191Z,4.85
2022-08-12T02:21:02.996Z,2.47
2022-08-12T02:23:33.437Z,4.68
2022-08-12T02:26:07.990Z,2.22
2022-08-12T02:28:38.892Z,3.40
2022-08-12T02:31:11.403Z,2.08
2022-08-12T02:33:41.504Z,2.38
2022-08-12T02:36:10.054Z,5.95
2022-08-12T02:38:39.066Z,2.40
2022-08-12T02:41:11.185Z,3.60
2022-08-12T02:43:47.043Z,4.00
2022-08-12T02:46:22.426Z,6.47
2022-08-12T02:48:53.541Z,3.50
2022-08-12T02:51:24.418Z,2.30
2022-08-12T02:54:05.271Z,2.63
2022-08-12T02:56:37.693Z,2.17
2022-08-12T02:59:12.492Z,3.75
2022-08-12T03:01:48.589Z,2.40
2022-08-12T03:04:27.501Z,2.20
2022-08-12T03:07:26.001Z,5.45
2022-08-12T03:10:17.849Z,4.75
2022-08-12T03:12:57.634Z,2.20
2022-08-12T03:15:27.469Z,3.67
2022-08-12T03:18:24.253Z,2.78
2022-08-12T03:20:50.654Z,5.57
2022-08-12T03:23:28.736Z,4.38
2022-08-12T03:25:59.202Z,3.75
2022-08-12T03:28:47.331Z,3.00
2022-08-12T03:31:17.645Z,5.20
2022-08-12T03:34:02.123Z,5.05
2022-08-12T03:36:35.810Z,3.03
2022-08-12T03:39:35.966Z,4.53
2022-08-12T03:42:29.954Z,12.80
2022-08-12T03:45:28.765Z,32.83
2022-08-12T03:48:19.071Z,16.67
2022-08-12T03:51:07.642Z,27.52
2022-08-12T03:53:54.169Z,12.65
2022-08-12T03:56:39.964Z,7.35
2022-08-12T03:59:26.636Z,5.78
2022-08-12T04:01:57.717Z,4.88
2022-08-12T04:04:28.073Z,4.13
2022-08-12T04:06:59.040Z,6.70
2022-08-12T04:09:28.607Z,3.90
2022-08-12T04:12:14.084Z,5.60
2022-08-12T04:14:43.462Z,5.85
2022-08-12T04:17:12.527Z,2.53
2022-08-12T04:19:41.729Z,5.72
2022-08-12T04:22:12.663Z,5.57
2022-08-12T04:24:43.157Z,5.60
2022-08-12T04:27:19.049Z,3.58
2022-08-12T04:30:31.657Z,2.85
2022-08-12T04:32:38.618Z,3.35
2022-08-12T04:35:10.057Z,3.60
2022-08-12T04:37:59.194Z,4.03
2022-08-12T04:40:30.496Z,25.40
2022-08-12T04:43:00.886Z,27.80
2022-08-12T04:45:29.746Z,15.15
2022-08-12T04:47:58.805Z,17.02
2022-08-12T04:50:35.819Z,9.40
2022-08-12T04:53:08.939Z,9.98
2022-08-12T04:55:39.098Z,12.02
2022-08-12T04:58:07.464Z,3.40
2022-08-12T05:00:37.521Z,4.43
2022-08-12T05:03:06.368Z,5.35
2022-08-12T05:05:36.435Z,6.15
2022-08-12T05:08:13.457Z,7.25
2022-08-12T05:10:43.731Z,3.13
2022-08-12T05:13:16.691Z,3.33
2022-08-12T05:16:02.652Z,4.03
2022-08-12T05:18:39.424Z,2.83
2022-08-12T05:21:09.166Z,3.95
2022-08-12T05:23:39.864Z,2.65
2022-08-12T05:26:08.377Z,3.33
2022-08-12T05:28:36.905Z,3.35
2022-08-12T05:31:05.939Z,5.32
2022-08-12T05:33:37.499Z,4.55
2022-08-12T05:36:10.073Z,5.57
2022-08-12T05:38:58.387Z,3.22
2022-08-12T05:41:29.263Z,3.97
2022-08-12T05:43:59.295Z,6.32
2022-08-12T05:46:29.107Z,4.93
2022-08-12T05:48:59.454Z,2.70
2022-08-12T05:51:39.628Z,3.40
2022-08-12T05:54:12.147Z,2.20
2022-08-12T05:56:41.758Z,5.05
2022-08-12T05:59:12.338Z,2.40
2022-08-12T06:02:10.973Z,2.53
2022-08-12T06:04:33.390Z,3.17
2022-08-12T06:07:02.725Z,5.00
2022-08-12T06:09:52.433Z,2.55
2022-08-12T06:12:23.651Z,3.78
2022-08-12T06:14:55.293Z,2.50
2022-08-12T06:17:43.993Z,2.83
2022-08-12T06:20:28.089Z,7.13
2022-08-12T06:22:58.533Z,3.67
2022-08-12T06:25:29.383Z,2.38
2022-08-12T06:28:07.318Z,2.95
2022-08-12T06:30:38.982Z,3.08
2022-08-12T06:33:22.465Z,6.38
2022-08-12T06:35:58.617Z,3.97
2022-08-12T06:38:28.941Z,5.32
2022-08-12T06:41:17.105Z,3.88
2022-08-12T06:44:05.959Z,2.40
2022-08-12T06:46:37.117Z,4.38
2022-08-12T06:49:06.882Z,2.75
2022-08-12T06:51:35.033Z,7.63
2022-08-12T06:54:03.857Z,3.63
2022-08-12T06:57:02.491Z,4.18
2022-08-12T06:59:23.256Z,2.45
2022-08-12T07:01:52.161Z,4.57
2022-08-12T07:04:38.328Z,1.60
2022-08-12T07:07:08.395Z,3.15
2022-08-12T07:09:59.515Z,2.30
2022-08-12T07:12:27.941Z,5.88
2022-08-12T07:14:56.625Z,6.60
2022-08-12T07:17:25.093Z,3.75
2022-08-12T07:19:53.931Z,2.40
2022-08-12T07:22:23.440Z,2.33
2022-08-12T07:25:12.578Z,4.35
2022-08-12T07:27:43.512Z,2.65
2022-08-12T07:30:12.798Z,2.47
2022-08-12T07:32:41.250Z,4.00
2022-08-12T07:35:10.232Z,2.08
2022-08-12T07:37:42.006Z,2.40
2022-08-12T07:40:12.334Z,3.15
2022-08-12T07:42:43.579Z,4.55
2022-08-12T07:45:13.747Z,6.35
2022-08-12T07:47:43.502Z,1.73
2022-08-12T07:50:13.143Z,2.80
2022-08-12T07:52:43.485Z,5.07
2022-08-12T07:55:13.712Z,3.22
2022-08-12T07:57:57.850Z,4.15
2022-08-12T08:00:28.205Z,7.63
2022-08-12T08:02:56.738Z,2.88
2022-08-12T08:05:27.231Z,4.68
2022-08-12T08:08:01.865Z,3.00
2022-08-12T08:10:31.044Z,5.90
2022-08-12T08:13:05.041Z,4.57
2022-08-12T08:16:01.211Z,6.65
2022-08-12T08:18:26.217Z,3.58
2022-08-12T08:20:56.847Z,7.85
2022-08-12T08:23:56.062Z,3.05
2022-08-12T08:26:26.513Z,4.25
2022-08-12T08:28:56.123Z,3.90
2022-08-12T08:31:24.250Z,4.15
2022-08-12T08:34:09.460Z,8.20
2022-08-12T08:36:43.622Z,3.47
2022-08-12T08:39:17.133Z,8.98
2022-08-12T08:42:17.784Z,4.43
2022-08-12T08:44:58.379Z,1.42
2022-08-12T08:47:27.262Z,6.35
2022-08-12T08:50:01.336Z,7.18
2022-08-12T08:52:39.731Z,2.25
2022-08-12T08:55:20.826Z,3.15
2022-08-12T08:57:55.731Z,4.32
2022-08-12T09:00:25.483Z,3.40
2022-08-12T09:02:59.121Z,3.30
2022-08-12T09:06:01.664Z,2.08
2022-08-12T09:08:23.148Z,1.38
2022-08-12T09:12:07.198Z,2.83
2022-08-12T09:19:30.065Z,2.05
2022-08-12T09:22:00.257Z,4.25
2022-08-12T09:24:30.035Z,2.03
2022-08-12T09:26:58.970Z,4.10
2022-08-12T09:30:10.185Z,5.50
2022-08-12T09:32:57.117Z,3.83
2022-08-12T09:35:18.739Z,6.63
2022-08-12T09:37:57.770Z,6.53
2022-08-12T09:41:01.628Z,2.30
2022-08-12T09:43:34.510Z,4.45
2022-08-12T09:46:06.871Z,5.18
2022-08-12T09:48:56.602Z,3.08
2022-08-12T09:51:37.783Z,3.00
2022-08-12T09:54:33.183Z,3.90
2022-08-12T09:58:07.379Z,3.67
2022-08-12T10:00:17.559Z,4.70
2022-08-12T10:02:44.630Z,6.53
2022-08-12T10:05:20.646Z,7.00
2022-08-12T10:07:49.166Z,7.18
2022-08-12T10:10:22.655Z,4.47
2022-08-12T10:13:13.935Z,4.38
2022-08-12T10:16:04.846Z,4.90
2022-08-12T10:18:35.255Z,4.82
2022-08-12T10:21:09.490Z,4.78
2022-08-12T10:23:41.017Z,4.30
2022-08-12T10:26:39.044Z,4.10
2022-08-12T10:30:02.128Z,6.63
2022-08-12T10:32:43.738Z,4.95
2022-08-12T10:35:10.659Z,3.95
2022-08-12T10:38:33.694Z,4.28
2022-08-12T10:40:33.256Z,3.88
2022-08-12T10:43:19.515Z,4.25
2022-08-12T10:45:49.729Z,4.68
2022-08-12T10:48:27.121Z,5.32
2022-08-12T10:52:02.931Z,5.93
2022-08-12T10:54:00.854Z,8.57
2022-08-12T10:56:34.433Z,8.20
2022-08-12T10:59:05.393Z,4.22
2022-08-12T11:04:17.995Z,4.75
2022-08-12T11:04:39.416Z,4.85
2022-08-12T11:08:35.193Z,3.70
2022-08-12T11:10:02.539Z,4.07
2022-08-12T11:12:57.217Z,7.05
2022-08-12T11:15:32.847Z,5.18
2022-08-12T11:18:18.245Z,5.25
2022-08-12T11:20:49.263Z,4.53
2022-08-12T11:23:26.142Z,4.72
2022-08-12T11:26:08.103Z,4.70
2022-08-12T11:28:38.665Z,4.07
2022-08-12T11:31:12.221Z,3.95
2022-08-12T11:34:06.044Z,3.95
2022-08-12T11:36:31.644Z,4.18
2022-08-12T11:39:01.249Z,5.00
2022-08-12T11:41:39.236Z,4.55
2022-08-12T11:44:37.087Z,4.88
2022-08-12T11:46:55.929Z,5.35
2022-08-12T11:49:30.496Z,3.72
2022-08-12T11:52:01.233Z,2.80
2022-08-12T11:54:30.228Z,3.55
2022-08-12T11:57:02.297Z,2.22
2022-08-12T12:02:23.762Z,4.75
2022-08-12T12:04:54.308Z,4.60
2022-08-12T12:08:36.647Z,2.25
2022-08-12T12:10:13.273Z,2.78
2022-08-12T12:12:49.934Z,7.63
2022-08-12T12:15:25.203Z,1.75
2022-08-12T12:18:05.416Z,1.75
2022-08-12T12:20:35.367Z,3.22
2022-08-12T12:23:04.346Z,2.13
2022-08-12T12:26:06.747Z,4.47
2022-08-12T12:28:37.609Z,2.28
2022-08-12T12:31:14.994Z,3.67
2022-08-12T12:33:58.033Z,1.55
2022-08-12T12:36:30.024Z,2.05
2022-08-12T12:39:00.133Z,4.40
2022-08-12T12:42:44.287Z,2.80
2022-08-12T12:44:26.174Z,6.03
2022-08-12T12:47:28.679Z,2.63
2022-08-12T12:49:55.772Z,3.67
2022-08-12T12:52:26.915Z,6.30
2022-08-12T12:54:58.602Z,2.75
2022-08-12T12:57:59.421Z,1.20
2022-08-12T13:00:18.018Z,4.35
2022-08-12T13:02:54.011Z,3.83
2022-08-12T13:05:27.877Z,1.55
2022-08-12T13:08:01.377Z,4.00
2022-08-12T13:10:37.067Z,1.48
2022-08-12T13:14:07.684Z,2.38
2022-08-12T13:15:58.945Z,7.32
2022-08-12T13:18:28.868Z,2.30
2022-08-12T13:20:59.518Z,4.13
2022-08-12T13:23:37.191Z,1.42
2022-08-12T13:26:07.772Z,1.90
2022-08-12T13:28:45.635Z,1.45
2022-08-12T13:31:25.231Z,1.70
2022-08-12T13:34:33.986Z,2.17
2022-08-12T13:36:45.448Z,2.30
2022-08-12T13:39:16.321Z,3.58
2022-08-12T13:41:45.275Z,4.18
2022-08-12T13:44:13.830Z,3.45
2022-08-12T13:46:43.553Z,3.45
2022-08-12T13:49:53.739Z,4.18
2022-08-12T13:52:15.268Z,2.72
2022-08-12T13:54:43.314Z,2.10
2022-08-12T13:57:26.577Z,3.10
2022-08-12T14:00:00.468Z,1.45
2022-08-12T14:02:32.297Z,2.78
2022-08-12T14:05:00.413Z,1.70
2022-08-12T14:07:30.930Z,9.30
2022-08-12T14:10:37.922Z,3.47
2022-08-12T14:13:17.287Z,3.45
2022-08-12T14:16:03.361Z,3.08
2022-08-12T14:18:35.840Z,1.60
2022-08-12T14:21:10.062Z,2.80
2022-08-12T14:24:04.638Z,2.08
2022-08-12T14:26:32.272Z,2.38
2022-08-12T14:29:02.508Z,1.67
2022-08-12T14:31:31.974Z,2.13
2022-08-12T14:34:04.819Z,4.28
2022-08-12T14:36:33.044Z,2.10
2022-08-12T14:39:05.980Z,1.60
2022-08-12T14:41:36.467Z,2.60
2022-08-12T14:44:57.682Z,6.40
2022-08-12T14:47:07.652Z,3.83
2022-08-12T14:50:33.540Z,3.90
2022-08-12T14:53:11.530Z,3.20
2022-08-12T14:58:03.829Z,1.30
2022-08-12T15:00:50.860Z,3.35
2022-08-12T15:03:52.059Z,3.28
2022-08-12T15:06:43.083Z,1.98
2022-08-12T15:09:09.203Z,2.15
2022-08-12T15:11:54.333Z,2.80
2022-08-12T15:14:25.402Z,2.50
2022-08-12T15:16:54.012Z,2.17
2022-08-12T15:20:11.590Z,5.05
2022-08-12T15:22:39.316Z,2.92
2022-08-12T15:25:00.113Z,2.60
2022-08-12T15:28:03.765Z,6.15
2022-08-12T15:30:19.897Z,3.00
2022-08-12T15:32:53.594Z,3.33
2022-08-12T15:35:21.984Z,1.65
2022-08-12T15:38:09.654Z,3.85
2022-08-12T15:40:48.249Z,3.75
2022-08-12T15:43:35.419Z,5.95
2022-08-12T15:46:07.508Z,4.30
2022-08-12T15:48:46.890Z,5.97
2022-08-12T15:51:59.093Z,3.33
2022-08-12T15:54:34.057Z,3.25
2022-08-12T15:57:05.561Z,2.33
2022-08-12T16:00:00.409Z,2.13
2022-08-12T16:02:22.867Z,2.75
2022-08-12T16:04:55.269Z,3.83
2022-08-12T16:07:25.993Z,3.88
2022-08-12T16:10:05.350Z,3.60
2022-08-12T16:12:41.953Z,6.18
2022-08-12T16:15:13.191Z,21.10
2022-08-12T16:18:17.780Z,26.02
2022-08-12T16:20:33.715Z,16.02
2022-08-12T16:23:35.928Z,18.90
2022-08-12T16:26:06.392Z,16.38
2022-08-12T16:28:42.486Z,12.65
2022-08-12T16:31:18.603Z,8.88
2022-08-12T16:33:59.825Z,9.02
2022-08-12T16:36:29.962Z,6.90
2022-08-12T16:39:01.420Z,7.93
2022-08-12T16:41:39.656Z,6.13
2022-08-12T16:44:09.488Z,6.25
2022-08-12T16:46:38.990Z,6.20
2022-08-12T16:49:08.886Z,6.55
2022-08-12T16:51:46.470Z,5.18
2022-08-12T16:54:17.019Z,3.47
2022-08-12T16:56:51.192Z,1.83
2022-08-12T16:59:30.803Z,2.13
2022-08-12T17:02:31.171Z,1.70
2022-08-12T17:05:04.536Z,3.65
2022-08-12T17:07:37.958Z,4.45
2022-08-12T17:10:07.922Z,2.40
2022-08-12T17:12:38.640Z,2.30
2022-08-12T17:15:50.856Z,1.92
2022-08-12T17:18:38.843Z,3.03
2022-08-12T17:20:47.887Z,1.63
2022-08-12T17:23:17.388Z,5.32
2022-08-12T17:25:49.013Z,6.32
2022-08-12T17:28:21.204Z,2.83
2022-08-12T17:30:57.275Z,1.90
2022-08-12T17:33:34.182Z,2.00
2022-08-12T17:36:03.592Z,4.03
2022-08-12T17:38:34.719Z,4.07
2022-08-12T17:41:08.148Z,2.67
2022-08-12T17:43:57.900Z,2.88
2022-08-12T17:46:33.628Z,3.53
2022-08-12T17:49:11.540Z,2.17
2022-08-12T17:52:01.947Z,3.58
2022-08-12T17:54:32.731Z,3.60
2022-08-12T17:57:02.500Z,4.20
2022-08-12T17:59:48.880Z,4.85
2022-08-12T18:02:25.639Z,2.08
2022-08-12T18:05:04.465Z,2.20
2022-08-12T18:07:35.652Z,4.25
2022-08-12T18:10:05.873Z,4.03
2022-08-12T18:12:40.156Z,4.45
2022-08-12T18:15:26.856Z,3.55
2022-08-12T18:18:03.849Z,3.47
2022-08-12T18:20:36.437Z,3.78
2022-08-12T18:23:06.150Z,4.53
2022-08-12T18:26:15.677Z,3.90
2022-08-12T18:28:43.138Z,2.60
2022-08-12T18:31:14.996Z,3.08
2022-08-12T18:33:46.106Z,2.80
2022-08-12T18:36:22.351Z,4.13
2022-08-12T18:38:53.145Z,3.38
2022-08-12T18:41:35.926Z,2.10
2022-08-12T18:44:09.644Z,2.60
2022-08-12T18:46:53.689Z,3.63
2022-08-12T18:49:31.570Z,3.95
2022-08-12T18:52:05.401Z,5.53
2022-08-12T18:54:36.313Z,5.68
2022-08-12T18:57:16.531Z,2.35
2022-08-12T19:00:00.756Z,4.78
2022-08-12T19:02:36.085Z,4.30
2022-08-12T19:05:10.995Z,3.67
2022-08-12T19:07:49.202Z,4.32
2022-08-12T19:10:26.583Z,3.15
2022-08-12T19:13:23.860Z,3.72
2022-08-12T19:15:54.434Z,3.55
2022-08-12T19:18:29.376Z,1.98
2022-08-12T19:20:58.842Z,2.67
2022-08-12T19:23:35.007Z,1.88
2022-08-12T19:26:05.123Z,6.53
2022-08-12T19:28:36.209Z,3.17
2022-08-12T19:31:57.907Z,2.35
2022-08-12T19:37:26.781Z,2.65
2022-08-12T19:40:10.160Z,3.78
2022-08-12T19:42:53.438Z,3.88
2022-08-12T19:45:22.633Z,3.45
2022-08-12T19:47:50.795Z,2.17
2022-08-12T19:50:20.872Z,5.75
2022-08-12T19:52:51.110Z,3.97
2022-08-12T19:55:21.835Z,5.90
2022-08-12T19:58:01.324Z,4.68
2022-08-12T20:00:31.588Z,4.68
2022-08-12T20:03:00.794Z,3.35
2022-08-12T20:06:07.059Z,3.67
2022-08-12T20:08:31.382Z,3.08
2022-08-12T20:12:09.983Z,6.65
2022-08-12T20:14:00.341Z,3.70
2022-08-12T20:16:52.081Z,3.25
2022-08-12T20:19:18.131Z,5.30
2022-08-12T20:21:49.529Z,3.63
2022-08-12T20:24:19.088Z,2.10
2022-08-12T20:26:48.143Z,4.32
2022-08-12T20:29:17.041Z,2.75
2022-08-12T20:31:45.701Z,4.32
2022-08-12T20:34:20.365Z,4.90
2022-08-12T20:36:57.348Z,2.10
2022-08-12T20:39:53.425Z,4.85
2022-08-12T20:42:24.384Z,2.35
2022-08-12T20:44:59.539Z,4.63
2022-08-12T20:47:46.451Z,3.92
2022-08-12T20:50:15.700Z,6.75
2022-08-12T20:52:49.124Z,2.42
2022-08-12T20:55:19.241Z,3.20
2022-08-12T20:58:01.608Z,3.75
2022-08-12T21:00:31.459Z,3.97
2022-08-12T21:03:23.434Z,2.65
2022-08-12T21:06:13.200Z,5.38
2022-08-12T21:08:43.753Z,7.03
2022-08-12T21:11:11.891Z,5.45
2022-08-12T21:13:41.716Z,6.53
2022-08-12T21:16:11.473Z,2.40
2022-08-12T21:18:39.749Z,5.78
2022-08-12T21:21:23.905Z,2.20
2022-08-12T21:23:56.579Z,3.33
2022-08-12T21:29:01.345Z,2.50
2022-08-12T21:34:26.010Z,9.88
2022-08-12T21:36:54.449Z,8.27
2022-08-12T21:39:36.494Z,5.78
2022-08-12T21:42:06.916Z,4.25
2022-08-12T21:45:47.732Z,2.67
2022-08-12T21:47:25.127Z,2.92
2022-08-12T21:50:02.816Z,5.25
2022-08-12T21:52:36.189Z,4.47
2022-08-12T21:55:18.784Z,6.45
2022-08-12T21:57:53.914Z,4.45
2022-08-12T22:00:34.393Z,3.28
2022-08-12T22:04:01.739Z,13.85
2022-08-12T22:06:31.782Z,9.32
2022-08-12T22:09:15.649Z,8.23
2022-08-12T22:11:56.227Z,4.45
2022-08-12T22:14:29.324Z,5.45
2022-08-12T22:16:58.708Z,4.90
2022-08-12T22:19:28.960Z,5.53
2022-08-12T22:22:04.104Z,4.63
2022-08-12T22:24:33.626Z,5.18
2022-08-12T22:27:18.288Z,5.53
2022-08-12T22:30:16.795Z,4.97
2022-08-12T22:32:50.191Z,5.30
2022-08-12T22:35:56.414Z,6.45
2022-08-12T22:38:24.846Z,5.85
2022-08-12T22:40:57.430Z,5.15
2022-08-12T22:44:00.035Z,4.75
2022-08-12T22:46:51.931Z,3.80
2022-08-12T22:49:36.400Z,3.17
2022-08-12T22:52:12.068Z,3.25
2022-08-12T22:54:59.961Z,5.45
2022-08-12T22:57:49.025Z,4.35
2022-08-12T23:00:27.435Z,4.53
2022-08-12T23:02:56.869Z,2.70
2022-08-12T23:05:56.790Z,2.85
2022-08-12T23:08:22.223Z,3.58
2022-08-12T23:10:51.744Z,3.63
2022-08-12T23:13:43.241Z,2.28
2022-08-12T23:16:18.101Z,4.78
2022-08-12T23:18:58.920Z,3.17
2022-08-12T23:22:03.263Z,3.78
2022-08-12T23:24:17.913Z,4.07
2022-08-12T23:27:04.553Z,3.97
2022-08-12T23:29:43.500Z,2.72
2022-08-12T23:32:36.265Z,2.33
2022-08-12T23:35:06.539Z,5.97
2022-08-12T23:37:47.339Z,5.45
2022-08-12T23:40:41.392Z,3.47
2022-08-12T23:43:12.909Z,2.15
2022-08-12T23:45:40.947Z,3.53
2022-08-12T23:48:31.197Z,3.22
2022-08-12T23:51:02.019Z,3.08
2022-08-12T23:53:51.063Z,4.68
2022-08-12T23:56:19.157Z,2.20
2022-08-12T23:58:52.777Z,3.00
